createdAt,value
2023-05-04T00:00:39.361Z,25.20
2023-05-04T00:10:45.871Z,26.20
2023-05-04T00:20:52.819Z,25.10
2023-05-04T00:30:59.317Z,26.50
2023-05-04T00:41:05.823Z,24.10
2023-05-04T00:51:13.386Z,23.90
2023-05-04T01:01:19.918Z,23.90
2023-05-04T01:11:31.360Z,23.40
2023-05-04T01:21:38.298Z,21.70
2023-05-04T01:31:46.714Z,20.00
2023-05-04T01:41:53.397Z,19.60
2023-05-04T01:52:00.019Z,17.40
2023-05-04T02:02:06.987Z,18.70
2023-05-04T02:12:13.590Z,18.50
2023-05-04T02:22:20.113Z,24.10
2023-05-04T02:32:27.540Z,19.10
2023-05-04T02:42:34.682Z,17.60
2023-05-04T02:52:41.153Z,18.20
2023-05-04T03:02:47.752Z,16.50
2023-05-04T03:12:54.323Z,15.50
2023-05-04T03:23:00.908Z,15.60
2023-05-04T03:33:07.480Z,15.40
2023-05-04T03:43:14.169Z,15.80
2023-05-04T03:53:20.693Z,15.80
2023-05-04T04:03:27.350Z,17.60
2023-05-04T04:13:33.974Z,20.00
2023-05-04T04:23:40.470Z,18.40
2023-05-04T04:33:47.082Z,18.10
2023-05-04T04:43:53.533Z,15.70
2023-05-04T04:54:00.015Z,15.40
2023-05-04T05:04:07.026Z,13.70
2023-05-04T05:14:13.736Z,13.40
2023-05-04T05:24:20.220Z,12.10
2023-05-04T05:34:26.680Z,12.90
2023-05-04T05:44:33.193Z,12.50
2023-05-04T05:54:39.693Z,10.50
2023-05-04T06:04:46.582Z,11.50
2023-05-04T06:14:53.160Z,23.50
2023-05-04T06:25:03.748Z,17.50
2023-05-04T06:35:13.090Z,12.20
2023-05-04T06:45:20.191Z,11.20
2023-05-04T06:55:26.771Z,8.10
2023-05-04T07:05:37.101Z,7.80
2023-05-04T07:15:43.645Z,5.70
2023-05-04T07:25:51.046Z,4.80
2023-05-04T07:36:00.029Z,4.30
2023-05-04T07:46:06.469Z,4.80
2023-05-04T07:56:14.262Z,4.90
2023-05-04T08:06:20.701Z,5.20
2023-05-04T08:16:27.287Z,4.50
2023-05-04T08:26:33.868Z,5.20
2023-05-04T08:36:40.339Z,4.60
2023-05-04T08:46:53.865Z,4.00
2023-05-04T08:57:00.799Z,4.00
2023-05-04T09:07:07.690Z,3.90
2023-05-04T09:17:29.328Z,3.90
2023-05-04T09:27:33.963Z,4.15
2023-05-04T09:37:48.194Z,4.20
2023-05-04T09:47:55.677Z,3.90
2023-05-04T09:58:02.498Z,3.80
2023-05-04T10:08:09.733Z,4.30
2023-05-04T10:18:36.008Z,3.50
2023-05-04T10:29:13.798Z,4.50
2023-05-04T10:39:25.319Z,4.10
2023-05-04T10:49:32.115Z,4.20
2023-05-04T10:59:39.291Z,4.30
2023-05-04T11:09:45.864Z,3.60
2023-05-04T11:19:53.649Z,4.00
2023-05-04T11:30:02.117Z,3.50
2023-05-04T11:40:20.551Z,4.00
2023-05-04T11:50:28.206Z,3.80
2023-05-04T12:00:45.653Z,3.80
2023-05-04T12:10:52.419Z,3.80
2023-05-04T12:21:09.443Z,3.70
2023-05-04T12:31:15.988Z,3.60
2023-05-04T12:41:22.835Z,4.10
2023-05-04T12:51:29.286Z,4.00
2023-05-04T13:01:36.168Z,3.70
2023-05-04T13:11:43.430Z,4.20
2023-05-04T13:21:50.182Z,3.60
2023-05-04T13:31:56.707Z,3.50
2023-05-04T13:42:03.443Z,3.80
2023-05-04T13:52:10.079Z,4.30
2023-05-04T14:02:16.593Z,4.00
2023-05-04T14:12:23.687Z,3.70
2023-05-04T14:22:30.168Z,4.20
2023-05-04T14:32:37.725Z,4.10
2023-05-04T14:42:44.261Z,4.40
2023-05-04T14:52:50.757Z,4.30
2023-05-04T15:02:57.425Z,4.60
2023-05-04T15:13:04.610Z,4.40
2023-05-04T15:23:14.053Z,4.50
2023-05-04T15:33:20.546Z,4.10
2023-05-04T15:43:27.047Z,5.00
2023-05-04T15:53:33.612Z,5.00
2023-05-04T16:03:40.130Z,4.30
2023-05-04T16:13:47.635Z,4.90
2023-05-04T16:23:54.140Z,4.50
2023-05-04T16:34:00.645Z,4.80
2023-05-04T16:44:07.205Z,5.20
2023-05-04T16:54:13.662Z,4.60
2023-05-04T17:04:20.094Z,4.60
2023-05-04T17:14:26.575Z,4.80
2023-05-04T17:24:33.365Z,4.90
2023-05-04T17:34:39.842Z,6.20
2023-05-04T17:44:46.612Z,5.30
2023-05-04T17:54:54.526Z,5.60
2023-05-04T18:05:01.336Z,5.50
2023-05-04T18:15:10.291Z,6.20
2023-05-04T18:25:16.759Z,6.70
2023-05-04T18:35:23.873Z,5.70
2023-05-04T18:45:30.400Z,6.70
2023-05-04T18:55:37.048Z,6.90
2023-05-04T19:05:44.904Z,6.40
2023-05-04T19:15:51.481Z,6.90
2023-05-04T19:25:57.963Z,7.20
2023-05-04T19:36:04.637Z,6.40
2023-05-04T19:46:11.184Z,7.30
2023-05-04T19:56:17.724Z,8.10
2023-05-04T20:06:24.270Z,11.30
2023-05-04T20:16:30.777Z,10.00
2023-05-04T20:26:37.427Z,9.70
2023-05-04T20:36:44.276Z,9.50
2023-05-04T20:46:50.787Z,8.80
2023-05-04T20:56:57.296Z,9.70
2023-05-04T21:07:03.748Z,8.60
2023-05-04T21:17:10.556Z,9.70
2023-05-04T21:27:17.055Z,9.20
2023-05-04T21:37:23.919Z,9.00
2023-05-04T21:47:30.805Z,9.70
2023-05-04T21:57:37.380Z,9.00
2023-05-04T22:07:44.005Z,9.60
2023-05-04T22:17:50.496Z,9.00
2023-05-04T22:27:56.988Z,9.50
2023-05-04T22:38:03.475Z,9.90
2023-05-04T22:48:10.011Z,10.10
2023-05-04T22:58:16.488Z,10.00
2023-05-04T23:08:22.937Z,9.80
2023-05-04T23:18:29.475Z,10.00
2023-05-04T23:28:35.942Z,11.00
2023-05-04T23:38:42.417Z,10.50
2023-05-04T23:48:48.962Z,11.10
2023-05-04T23:58:55.553Z,11.50
